sensor_id;sensor_type;location;lat;lon;timestamp;pressure;altitude;pressure_sealevel;temperature;humidity
80116;BME280;69423;47.608;19.366;2024-03-07T00:00:24;98850.03;;;6.56;100.00
80116;BME280;69423;47.608;19.366;2024-03-07T00:00:55;98860.66;;;6.56;100.00
80116;BME280;69423;47.608;19.366;2024-03-07T00:01:27;98856.47;;;6.54;100.00
80116;BME280;69423;47.608;19.366;2024-03-07T00:01:58;98856.31;;;6.55;100.00
80116;BME280;69423;47.608;19.366;2024-03-07T00:02:29;98855.66;;;6.53;100.00
80116;BME280;69423;47.608;19.366;2024-03-07T00:03:01;98853.16;;;6.52;100.00
80116;BME280;69423;47.608;19.366;2024-03-07T00:03:32;98852.63;;;6.40;100.00
80116;BME280;69423;47.608;19.366;2024-03-07T00:04:03;98850.66;;;6.42;100.00
80116;BME280;69423;47.608;19.366;2024-03-07T00:04:34;98849.66;;;6.43;100.00
80116;BME280;69423;47.608;19.366;2024-03-07T00:05:07;98856.28;;;6.47;100.00
80116;BME280;69423;47.608;19.366;2024-03-07T00:05:39;98856.63;;;6.44;99.21
80116;BME280;69423;47.608;19.366;2024-03-07T00:06:10;98853.78;;;6.45;98.58
80116;BME280;69423;47.608;19.366;2024-03-07T00:06:41;98860.59;;;6.48;98.78
80116;BME280;69423;47.608;19.366;2024-03-07T00:07:12;98854.63;;;6.46;98.62
80116;BME280;69423;47.608;19.366;2024-03-07T00:07:44;98845.16;;;6.43;97.75
80116;BME280;69423;47.608;19.366;2024-03-07T00:08:15;98853.78;;;6.45;97.41
80116;BME280;69423;47.608;19.366;2024-03-07T00:08:46;98853.97;;;6.44;98.38
80116;BME280;69423;47.608;19.366;2024-03-07T00:09:17;98847.16;;;6.41;98.33
80116;BME280;69423;47.608;19.366;2024-03-07T00:09:48;98851.47;;;6.42;97.97
80116;BME280;69423;47.608;19.366;2024-03-07T00:10:21;98849.97;;;6.40;96.84
80116;BME280;69423;47.608;19.366;2024-03-07T00:10:53;98852.63;;;6.40;96.56
80116;BME280;69423;47.608;19.366;2024-03-07T00:11:24;98860.38;;;6.41;96.49
80116;BME280;69423;47.608;19.366;2024-03-07T00:11:55;98849.66;;;6.43;97.21
80116;BME280;69423;47.608;19.366;2024-03-07T00:12:26;98861.06;;;6.43;97.36
80116;BME280;69423;47.608;19.366;2024-03-07T00:12:58;98856.63;;;6.44;96.76
80116;BME280;69423;47.608;19.366;2024-03-07T00:13:29;98856.44;;;6.45;97.63
80116;BME280;69423;47.608;19.366;2024-03-07T00:14:00;98858.09;;;6.46;98.36
80116;BME280;69423;47.608;19.366;2024-03-07T00:14:31;98856.28;;;6.47;97.87
80116;BME280;69423;47.608;19.366;2024-03-07T00:15:03;98857.97;;;6.48;97.67
80116;BME280;69423;47.608;19.366;2024-03-07T00:15:34;98852.00;;;6.46;96.85
80116;BME280;69423;47.608;19.366;2024-03-07T00:16:05;98859.09;;;6.45;96.84
80116;BME280;69423;47.608;19.366;2024-03-07T00:16:36;98858.56;;;6.34;95.31
80116;BME280;69423;47.608;19.366;2024-03-07T00:17:07;98854.38;;;6.31;96.38
80116;BME280;69423;47.608;19.366;2024-03-07T00:17:39;98857.56;;;6.35;96.19
80116;BME280;69423;47.608;19.366;2024-03-07T00:18:10;98856.56;;;6.36;96.64
80116;BME280;69423;47.608;19.366;2024-03-07T00:18:41;98860.19;;;6.35;97.25
80116;BME280;69423;47.608;19.366;2024-03-07T00:19:12;98852.59;;;6.32;97.12
80116;BME280;69423;47.608;19.366;2024-03-07T00:19:45;98858.50;;;6.25;95.26
80116;BME280;69423;47.608;19.366;2024-03-07T00:20:18;98854.13;;;6.16;93.68
80116;BME280;69423;47.608;19.366;2024-03-07T00:20:50;98851.69;;;6.15;94.35
80116;BME280;69423;47.608;19.366;2024-03-07T00:21:21;98863.44;;;6.20;93.83
80116;BME280;69423;47.608;19.366;2024-03-07T00:21:53;98860.97;;;6.27;94.20
80116;BME280;69423;47.608;19.366;2024-03-07T00:22:24;98858.81;;;6.22;94.14
80116;BME280;69423;47.608;19.366;2024-03-07T00:22:57;98857.66;;;6.25;94.04
80116;BME280;69423;47.608;19.366;2024-03-07T00:23:28;98868.25;;;6.25;94.32
80116;BME280;69423;47.608;19.366;2024-03-07T00:23:59;98851.72;;;6.23;95.61
80116;BME280;69423;47.608;19.366;2024-03-07T00:24:31;98857.84;;;6.23;95.73
80116;BME280;69423;47.608;19.366;2024-03-07T00:25:03;98856.63;;;6.18;94.38
80116;BME280;69423;47.608;19.366;2024-03-07T00:25:37;98854.13;;;6.16;94.68
80116;BME280;69423;47.608;19.366;2024-03-07T00:26:08;98857.16;;;6.21;94.98
80116;BME280;69423;47.608;19.366;2024-03-07T00:26:39;98848.22;;;6.22;95.15
80116;BME280;69423;47.608;19.366;2024-03-07T00:27:14;98860.97;;;6.27;95.32
80116;BME280;69423;47.608;19.366;2024-03-07T00:27:45;98853.72;;;6.29;94.91
80116;BME280;69423;47.608;19.366;2024-03-07T00:28:16;98861.16;;;6.25;95.01
80116;BME280;69423;47.608;19.366;2024-03-07T00:28:47;98855.50;;;6.20;95.35
80116;BME280;69423;47.608;19.366;2024-03-07T00:29:19;98856.50;;;6.19;93.82
80116;BME280;69423;47.608;19.366;2024-03-07T00:29:50;98851.88;;;6.21;94.14
80116;BME280;69423;47.608;19.366;2024-03-07T00:30:24;98851.72;;;6.23;94.41
80116;BME280;69423;47.608;19.366;2024-03-07T00:30:55;98849.91;;;6.23;93.96
80116;BME280;69423;47.608;19.366;2024-03-07T00:31:26;98853.22;;;6.25;93.91
80116;BME280;69423;47.608;19.366;2024-03-07T00:31:57;98854.00;;;6.18;93.72
80116;BME280;69423;47.608;19.366;2024-03-07T00:32:29;98853.16;;;6.17;92.75
80116;BME280;69423;47.608;19.366;2024-03-07T00:33:00;98846.56;;;6.21;92.42
80116;BME280;69423;47.608;19.366;2024-03-07T00:33:31;98860.31;;;6.25;92.78
80116;BME280;69423;47.608;19.366;2024-03-07T00:34:03;98850.38;;;6.27;93.01
80116;BME280;69423;47.608;19.366;2024-03-07T00:34:34;98858.19;;;6.28;92.95
80116;BME280;69423;47.608;19.366;2024-03-07T00:35:06;98849.25;;;6.30;93.93
80116;BME280;69423;47.608;19.366;2024-03-07T00:35:39;98853.88;;;6.27;94.31
80116;BME280;69423;47.608;19.366;2024-03-07T00:36:10;98849.06;;;6.23;94.53
80116;BME280;69423;47.608;19.366;2024-03-07T00:36:44;98851.72;;;6.23;95.03
80116;BME280;69423;47.608;19.366;2024-03-07T00:37:16;98844.41;;;6.25;94.09
80116;BME280;69423;47.608;19.366;2024-03-07T00:37:47;98862.13;;;6.24;94.48
80116;BME280;69423;47.608;19.366;2024-03-07T00:38:18;98852.53;;;6.23;94.23
80116;BME280;69423;47.608;19.366;2024-03-07T00:38:49;98847.91;;;6.25;94.26
80116;BME280;69423;47.608;19.366;2024-03-07T00:39:20;98858.34;;;6.27;94.64
80116;BME280;69423;47.608;19.366;2024-03-07T00:39:51;98852.88;;;6.28;93.76
80116;BME280;69423;47.608;19.366;2024-03-07T00:40:22;98852.88;;;6.28;94.93
80116;BME280;69423;47.608;19.366;2024-03-07T00:40:54;98851.91;;;6.30;95.36
80116;BME280;69423;47.608;19.366;2024-03-07T00:41:25;98849.94;;;6.32;95.11
80116;BME280;69423;47.608;19.366;2024-03-07T00:41:57;98856.88;;;6.33;95.52
80116;BME280;69423;47.608;19.366;2024-03-07T00:42:28;98855.91;;;6.34;94.67
80116;BME280;69423;47.608;19.366;2024-03-07T00:42:59;98851.72;;;6.31;95.54
80116;BME280;69423;47.608;19.366;2024-03-07T00:43:30;98855.22;;;6.32;94.89
80116;BME280;69423;47.608;19.366;2024-03-07T00:44:01;98854.22;;;6.33;94.75
80116;BME280;69423;47.608;19.366;2024-03-07T00:44:33;98845.31;;;6.34;95.76
80116;BME280;69423;47.608;19.366;2024-03-07T00:45:05;98850.44;;;6.35;96.35
80116;BME280;69423;47.608;19.366;2024-03-07T00:45:37;98856.22;;;6.31;97.37
80116;BME280;69423;47.608;19.366;2024-03-07T00:46:08;98850.09;;;6.30;98.40
80116;BME280;69423;47.608;19.366;2024-03-07T00:46:39;98851.72;;;6.31;97.31
80116;BME280;69423;47.608;19.366;2024-03-07T00:47:10;98853.41;;;6.32;97.78
80116;BME280;69423;47.608;19.366;2024-03-07T00:47:41;98855.69;;;6.27;98.33
80116;BME280;69423;47.608;19.366;2024-03-07T00:48:12;98858.19;;;6.28;97.73
80116;BME280;69423;47.608;19.366;2024-03-07T00:48:43;98847.44;;;6.30;96.86
80116;BME280;69423;47.608;19.366;2024-03-07T00:49:17;98859.84;;;6.30;96.47
80116;BME280;69423;47.608;19.366;2024-03-07T00:49:48;98856.34;;;6.29;95.38
80116;BME280;69423;47.608;19.366;2024-03-07T00:50:19;98847.91;;;6.25;94.35
80116;BME280;69423;47.608;19.366;2024-03-07T00:50:50;98857.50;;;6.26;94.47
80116;BME280;69423;47.608;19.366;2024-03-07T00:51:21;98854.56;;;6.30;93.69
80116;BME280;69423;47.608;19.366;2024-03-07T00:51:52;98854.50;;;6.21;93.58
80116;BME280;69423;47.608;19.366;2024-03-07T00:52:23;98853.50;;;6.22;92.38
80116;BME280;69423;47.608;19.366;2024-03-07T00:52:54;98857.66;;;6.25;92.57
80116;BME280;69423;47.608;19.366;2024-03-07T00:53:25;98850.53;;;6.17;94.11
80116;BME280;69423;47.608;19.366;2024-03-07T00:53:56;98855.28;;;6.14;95.70
80116;BME280;69423;47.608;19.366;2024-03-07T00:54:28;98860.09;;;6.18;95.84
80116;BME280;69423;47.608;19.366;2024-03-07T00:54:59;98859.97;;;6.20;96.17
80116;BME280;69423;47.608;19.366;2024-03-07T00:55:30;98848.56;;;6.19;95.87
80116;BME280;69423;47.608;19.366;2024-03-07T00:56:01;98860.28;;;6.17;95.30
80116;BME280;69423;47.608;19.366;2024-03-07T00:56:33;98868.06;;;6.18;95.16
80116;BME280;69423;47.608;19.366;2024-03-07T00:57:04;98859.81;;;6.21;95.36
80116;BME280;69423;47.608;19.366;2024-03-07T00:57:36;98862.31;;;6.23;95.91
80116;BME280;69423;47.608;19.366;2024-03-07T00:58:07;98863.97;;;6.24;94.98
80116;BME280;69423;47.608;19.366;2024-03-07T00:58:38;98860.16;;;6.26;94.21
80116;BME280;69423;47.608;19.366;2024-03-07T00:59:09;98866.44;;;6.25;93.88
80116;BME280;69423;47.608;19.366;2024-03-07T00:59:40;98857.34;;;6.28;95.64
80116;BME280;69423;47.608;19.366;2024-03-07T01:00:11;98862.13;;;6.24;95.29
80116;BME280;69423;47.608;19.366;2024-03-07T01:00:44;98851.53;;;6.24;95.28
80116;BME280;69423;47.608;19.366;2024-03-07T01:01:15;98861.16;;;6.25;95.97
80116;BME280;69423;47.608;19.366;2024-03-07T01:01:49;98860.69;;;6.30;96.66
80116;BME280;69423;47.608;19.366;2024-03-07T01:02:20;98855.88;;;6.25;97.71
80116;BME280;69423;47.608;19.366;2024-03-07T01:02:51;98862.13;;;6.24;98.84
80116;BME280;69423;47.608;19.366;2024-03-07T01:03:24;98856.84;;;6.24;99.96
80116;BME280;69423;47.608;19.366;2024-03-07T01:03:55;98860.31;;;6.25;98.68
80116;BME280;69423;47.608;19.366;2024-03-07T01:04:26;98858.00;;;6.22;96.78
80116;BME280;69423;47.608;19.366;2024-03-07T01:05:02;98851.53;;;6.24;94.87
80116;BME280;69423;47.608;19.366;2024-03-07T01:05:42;98850.72;;;6.24;94.14
80116;BME280;69423;47.608;19.366;2024-03-07T01:06:13;98858.50;;;6.25;94.00
80116;BME280;69423;47.608;19.366;2024-03-07T01:06:44;98855.53;;;6.28;93.68
80116;BME280;69423;47.608;19.366;2024-03-07T01:07:15;98858.19;;;6.28;94.93
80116;BME280;69423;47.608;19.366;2024-03-07T01:07:46;98859.53;;;6.33;95.55
80116;BME280;69423;47.608;19.366;2024-03-07T01:08:18;98864.16;;;6.31;95.15
80116;BME280;69423;47.608;19.366;2024-03-07T01:08:49;98854.84;;;6.26;94.41
80116;BME280;69423;47.608;19.366;2024-03-07T01:09:21;98858.50;;;6.25;94.49
80116;BME280;69423;47.608;19.366;2024-03-07T01:09:54;98861.66;;;6.29;94.01
80116;BME280;69423;47.608;19.366;2024-03-07T01:10:25;98862.13;;;6.24;94.33
80116;BME280;69423;47.608;19.366;2024-03-07T01:10:56;98849.38;;;6.20;94.03
80116;BME280;69423;47.608;19.366;2024-03-07T01:11:27;98859.66;;;6.23;93.43
80116;BME280;69423;47.608;19.366;2024-03-07T01:11:58;98859.34;;;6.26;92.98
80116;BME280;69423;47.608;19.366;2024-03-07T01:12:34;98859.00;;;6.29;93.23
80116;BME280;69423;47.608;19.366;2024-03-07T01:13:05;98858.19;;;6.28;93.54
80116;BME280;69423;47.608;19.366;2024-03-07T01:13:39;98859.84;;;6.30;94.54
80116;BME280;69423;47.608;19.366;2024-03-07T01:14:10;98857.13;;;6.13;92.60
80116;BME280;69423;47.608;19.366;2024-03-07T01:14:41;98850.16;;;6.12;92.52
80116;BME280;69423;47.608;19.366;2024-03-07T01:15:12;98857.47;;;6.18;93.17
80116;BME280;69423;47.608;19.366;2024-03-07T01:15:45;98855.50;;;6.20;93.55
80116;BME280;69423;47.608;19.366;2024-03-07T01:16:16;98858.66;;;6.24;92.46
80116;BME280;69423;47.608;19.366;2024-03-07T01:16:47;98859.81;;;6.21;92.82
80116;BME280;69423;47.608;19.366;2024-03-07T01:17:19;98855.00;;;6.17;91.19
80116;BME280;69423;47.608;19.366;2024-03-07T01:17:50;98850.53;;;6.17;91.76
80116;BME280;69423;47.608;19.366;2024-03-07T01:18:21;98858.31;;;6.19;92.06
80116;BME280;69423;47.608;19.366;2024-03-07T01:18:52;98866.41;;;6.17;92.12
80116;BME280;69423;47.608;19.366;2024-03-07T01:19:23;98853.84;;;6.19;92.07
80116;BME280;69423;47.608;19.366;2024-03-07T01:19:55;98856.63;;;6.18;91.33
80116;BME280;69423;47.608;19.366;2024-03-07T01:20:26;98856.78;;;6.16;91.83
80116;BME280;69423;47.608;19.366;2024-03-07T01:20:57;98855.50;;;6.20;92.37
80116;BME280;69423;47.608;19.366;2024-03-07T01:21:28;98853.84;;;6.19;92.37
80116;BME280;69423;47.608;19.366;2024-03-07T01:21:59;98853.03;;;6.19;91.49
80116;BME280;69423;47.608;19.366;2024-03-07T01:22:30;98853.50;;;6.22;91.93
80116;BME280;69423;47.608;19.366;2024-03-07T01:23:01;98850.72;;;6.24;91.56
80116;BME280;69423;47.608;19.366;2024-03-07T01:23:32;98853.50;;;6.22;91.98
80116;BME280;69423;47.608;19.366;2024-03-07T01:24:03;98853.22;;;6.25;92.71
80116;BME280;69423;47.608;19.366;2024-03-07T01:24:34;98860.47;;;6.23;93.16
80116;BME280;69423;47.608;19.366;2024-03-07T01:25:06;98855.19;;;6.23;94.47
80116;BME280;69423;47.608;19.366;2024-03-07T01:25:37;98855.69;;;6.27;94.02
80116;BME280;69423;47.608;19.366;2024-03-07T01:26:08;98859.47;;;6.24;93.93
80116;BME280;69423;47.608;19.366;2024-03-07T01:26:39;98852.69;;;6.22;94.11
80116;BME280;69423;47.608;19.366;2024-03-07T01:27:10;98853.16;;;6.17;93.31
80116;BME280;69423;47.608;19.366;2024-03-07T01:27:41;98848.69;;;6.18;93.16
80116;BME280;69423;47.608;19.366;2024-03-07T01:28:12;98847.53;;;6.20;93.20
80116;BME280;69423;47.608;19.366;2024-03-07T01:28:45;98846.56;;;6.21;93.74
80116;BME280;69423;47.608;19.366;2024-03-07T01:29:16;98846.56;;;6.21;93.10
80116;BME280;69423;47.608;19.366;2024-03-07T01:29:47;98850.19;;;6.20;93.44
80116;BME280;69423;47.608;19.366;2024-03-07T01:30:19;98851.53;;;6.24;93.00
80116;BME280;69423;47.608;19.366;2024-03-07T01:30:51;98851.53;;;6.24;93.12
80116;BME280;69423;47.608;19.366;2024-03-07T01:31:23;98849.53;;;6.18;93.12
80116;BME280;69423;47.608;19.366;2024-03-07T01:31:54;98857.47;;;6.18;93.39
80116;BME280;69423;47.608;19.366;2024-03-07T01:32:25;98852.16;;;6.18;92.44
80116;BME280;69423;47.608;19.366;2024-03-07T01:32:57;98844.41;;;6.17;92.39
80116;BME280;69423;47.608;19.366;2024-03-07T01:33:28;98846.56;;;6.21;93.04
80116;BME280;69423;47.608;19.366;2024-03-07T01:33:59;98851.34;;;6.18;93.29
80116;BME280;69423;47.608;19.366;2024-03-07T01:34:30;98850.53;;;6.17;91.78
80116;BME280;69423;47.608;19.366;2024-03-07T01:35:01;98844.41;;;6.17;91.73
80116;BME280;69423;47.608;19.366;2024-03-07T01:35:32;98847.53;;;6.20;91.35
80116;BME280;69423;47.608;19.366;2024-03-07T01:36:03;98850.00;;;6.14;90.96
80116;BME280;69423;47.608;19.366;2024-03-07T01:36:35;98849.66;;;6.08;91.56
80116;BME280;69423;47.608;19.366;2024-03-07T01:37:07;98843.34;;;6.10;91.44
80116;BME280;69423;47.608;19.366;2024-03-07T01:37:39;98843.06;;;6.13;92.01
80116;BME280;69423;47.608;19.366;2024-03-07T01:38:10;98849.47;;;6.10;91.35
80116;BME280;69423;47.608;19.366;2024-03-07T01:38:42;98850.47;;;6.09;91.31
80116;BME280;69423;47.608;19.366;2024-03-07T01:39:13;98853.13;;;6.09;91.63
80116;BME280;69423;47.608;19.366;2024-03-07T01:39:44;98847.81;;;6.09;91.76
80116;BME280;69423;47.608;19.366;2024-03-07T01:40:15;98848.50;;;6.11;91.53
80116;BME280;69423;47.608;19.366;2024-03-07T01:40:46;98849.03;;;6.15;91.53
80116;BME280;69423;47.608;19.366;2024-03-07T01:41:17;98848.84;;;6.16;91.63
80116;BME280;69423;47.608;19.366;2024-03-07T01:41:49;98842.72;;;6.16;92.51
80116;BME280;69423;47.608;19.366;2024-03-07T01:42:20;98845.22;;;6.17;91.56
80116;BME280;69423;47.608;19.366;2024-03-07T01:42:51;98847.06;;;6.17;91.82
80116;BME280;69423;47.608;19.366;2024-03-07T01:43:22;98848.19;;;6.14;91.53
80116;BME280;69423;47.608;19.366;2024-03-07T01:43:53;98845.53;;;6.14;91.05
80116;BME280;69423;47.608;19.366;2024-03-07T01:44:24;98847.19;;;6.15;91.45
80116;BME280;69423;47.608;19.366;2024-03-07T01:44:55;98846.06;;;6.18;91.39
80116;BME280;69423;47.608;19.366;2024-03-07T01:45:26;98844.41;;;6.17;91.49
80116;BME280;69423;47.608;19.366;2024-03-07T01:45:57;98846.06;;;6.18;91.54
80116;BME280;69423;47.608;19.366;2024-03-07T01:46:32;98847.88;;;6.17;91.66
80116;BME280;69423;47.608;19.366;2024-03-07T01:47:03;98847.88;;;6.17;92.05
80116;BME280;69423;47.608;19.366;2024-03-07T01:47:35;98851.69;;;6.15;91.83
80116;BME280;69423;47.608;19.366;2024-03-07T01:48:09;98841.38;;;6.12;91.36
80116;BME280;69423;47.608;19.366;2024-03-07T01:48:40;98846.88;;;6.18;91.48
80116;BME280;69423;47.608;19.366;2024-03-07T01:49:12;98851.00;;;6.13;91.18
80116;BME280;69423;47.608;19.366;2024-03-07T01:49:43;98843.22;;;6.11;91.41
80116;BME280;69423;47.608;19.366;2024-03-07T01:50:15;98845.72;;;6.13;90.80
80116;BME280;69423;47.608;19.366;2024-03-07T01:50:46;98849.19;;;6.13;90.90
80116;BME280;69423;47.608;19.366;2024-03-07T01:51:17;98849.19;;;6.13;91.80
80116;BME280;69423;47.608;19.366;2024-03-07T01:51:48;98847.50;;;6.12;91.13
80116;BME280;69423;47.608;19.366;2024-03-07T01:52:19;98850.31;;;6.11;91.17
80116;BME280;69423;47.608;19.366;2024-03-07T01:52:53;98846.00;;;6.10;91.50
80116;BME280;69423;47.608;19.366;2024-03-07T01:53:27;98845.72;;;6.13;91.76
80116;BME280;69423;47.608;19.366;2024-03-07T01:53:59;98843.06;;;6.13;90.84
80116;BME280;69423;47.608;19.366;2024-03-07T01:54:31;98850.31;;;6.11;91.82
80116;BME280;69423;47.608;19.366;2024-03-07T01:55:02;98848.34;;;6.13;91.87
80116;BME280;69423;47.608;19.366;2024-03-07T01:55:33;98848.81;;;6.08;91.78
80116;BME280;69423;47.608;19.366;2024-03-07T01:56:05;98845.19;;;6.09;91.39
80116;BME280;69423;47.608;19.366;2024-03-07T01:56:36;98842.53;;;6.09;91.72
80116;BME280;69423;47.608;19.366;2024-03-07T01:57:09;98846.69;;;6.12;91.75
80116;BME280;69423;47.608;19.366;2024-03-07T01:57:41;98844.03;;;6.12;91.60
80116;BME280;69423;47.608;19.366;2024-03-07T01:58:13;98845.81;;;6.03;91.35
80116;BME280;69423;47.608;19.366;2024-03-07T01:58:49;98844.13;;;6.02;90.03
80116;BME280;69423;47.608;19.366;2024-03-07T01:59:23;98844.47;;;5.99;90.66
80116;BME280;69423;47.608;19.366;2024-03-07T01:59:55;98845.47;;;6.06;91.29
80116;BME280;69423;47.608;19.366;2024-03-07T02:00:27;98850.47;;;6.09;92.43
80116;BME280;69423;47.608;19.366;2024-03-07T02:00:59;98847.81;;;6.09;92.47
80116;BME280;69423;47.608;19.366;2024-03-07T02:01:30;98851.00;;;6.13;91.78
80116;BME280;69423;47.608;19.366;2024-03-07T02:02:02;98852.16;;;6.18;91.87
80116;BME280;69423;47.608;19.366;2024-03-07T02:02:34;98837.59;;;6.14;92.98
80116;BME280;69423;47.608;19.366;2024-03-07T02:03:05;98842.72;;;6.16;92.10
80116;BME280;69423;47.608;19.366;2024-03-07T02:03:37;98854.13;;;6.16;92.97
80116;BME280;69423;47.608;19.366;2024-03-07T02:04:08;98848.03;;;6.16;94.98
80116;BME280;69423;47.608;19.366;2024-03-07T02:04:39;98850.53;;;6.17;95.81
80116;BME280;69423;47.608;19.366;2024-03-07T02:05:11;98848.84;;;6.16;96.15
80116;BME280;69423;47.608;19.366;2024-03-07T02:05:42;98845.06;;;6.19;95.35
80116;BME280;69423;47.608;19.366;2024-03-07T02:06:14;98847.88;;;6.17;94.64
80116;BME280;69423;47.608;19.366;2024-03-07T02:06:45;98846.88;;;6.18;94.33
80116;BME280;69423;47.608;19.366;2024-03-07T02:07:16;98845.91;;;6.19;92.38
80116;BME280;69423;47.608;19.366;2024-03-07T02:07:47;98839.78;;;6.19;92.47
80116;BME280;69423;47.608;19.366;2024-03-07T02:08:18;98845.22;;;6.17;92.51
80116;BME280;69423;47.608;19.366;2024-03-07T02:08:50;98844.41;;;6.17;90.59
80116;BME280;69423;47.608;19.366;2024-03-07T02:09:21;98846.72;;;6.20;90.78
80116;BME280;69423;47.608;19.366;2024-03-07T02:10:00;98840.22;;;6.14;91.76
80116;BME280;69423;47.608;19.366;2024-03-07T02:10:31;98847.88;;;6.17;91.85
80116;BME280;69423;47.608;19.366;2024-03-07T02:11:02;98847.88;;;6.17;91.36
80116;BME280;69423;47.608;19.366;2024-03-07T02:11:33;98849.38;;;6.20;91.78
80116;BME280;69423;47.608;19.366;2024-03-07T02:12:05;98848.69;;;6.18;91.41
80116;BME280;69423;47.608;19.366;2024-03-07T02:12:36;98848.03;;;6.16;91.42
80116;BME280;69423;47.608;19.366;2024-03-07T02:13:07;98845.22;;;6.17;91.36
80116;BME280;69423;47.608;19.366;2024-03-07T02:13:38;98843.41;;;6.18;91.71
80116;BME280;69423;47.608;19.366;2024-03-07T02:14:09;98841.75;;;6.17;89.80
80116;BME280;69423;47.608;19.366;2024-03-07T02:14:40;98845.91;;;6.19;90.00
80116;BME280;69423;47.608;19.366;2024-03-07T02:15:11;98848.56;;;6.19;90.18
80116;BME280;69423;47.608;19.366;2024-03-07T02:15:44;98846.06;;;6.18;90.44
80116;BME280;69423;47.608;19.366;2024-03-07T02:16:15;98846.88;;;6.18;90.20
80116;BME280;69423;47.608;19.366;2024-03-07T02:16:47;98840.75;;;6.18;89.68
80116;BME280;69423;47.608;19.366;2024-03-07T02:17:18;98836.28;;;6.18;90.19
80116;BME280;69423;47.608;19.366;2024-03-07T02:17:51;98843.56;;;6.16;89.63
80116;BME280;69423;47.608;19.366;2024-03-07T02:18:22;98843.41;;;6.18;90.19
80116;BME280;69423;47.608;19.366;2024-03-07T02:18:53;98848.84;;;6.16;90.70
80116;BME280;69423;47.608;19.366;2024-03-07T02:19:26;98843.22;;;6.11;90.21
80116;BME280;69423;47.608;19.366;2024-03-07T02:19:57;98845.84;;;6.11;89.58
80116;BME280;69423;47.608;19.366;2024-03-07T02:20:28;98848.19;;;6.14;89.89
80116;BME280;69423;47.608;19.366;2024-03-07T02:20:59;98842.06;;;6.14;90.33
80116;BME280;69423;47.608;19.366;2024-03-07T02:21:30;98848.84;;;6.16;90.65
80116;BME280;69423;47.608;19.366;2024-03-07T02:22:01;98846.06;;;6.18;90.13
80116;BME280;69423;47.608;19.366;2024-03-07T02:22:32;98846.06;;;6.18;90.16
80116;BME280;69423;47.608;19.366;2024-03-07T02:23:03;98843.06;;;6.13;89.67
80116;BME280;69423;47.608;19.366;2024-03-07T02:23:34;98842.59;;;6.17;90.01
80116;BME280;69423;47.608;19.366;2024-03-07T02:24:06;98845.22;;;6.17;90.11
80116;BME280;69423;47.608;19.366;2024-03-07T02:24:37;98849.22;;;6.21;90.89
80116;BME280;69423;47.608;19.366;2024-03-07T02:25:08;98844.75;;;6.22;91.12
80116;BME280;69423;47.608;19.366;2024-03-07T02:25:42;98845.91;;;6.19;90.30
80116;BME280;69423;47.608;19.366;2024-03-07T02:26:13;98845.91;;;6.19;89.91
80116;BME280;69423;47.608;19.366;2024-03-07T02:26:44;98844.22;;;6.18;90.42
80116;BME280;69423;47.608;19.366;2024-03-07T02:27:15;98843.56;;;6.16;89.29
80116;BME280;69423;47.608;19.366;2024-03-07T02:27:46;98844.41;;;6.17;88.38
80116;BME280;69423;47.608;19.366;2024-03-07T02:28:17;98843.41;;;6.18;88.56
80116;BME280;69423;47.608;19.366;2024-03-07T02:28:50;98846.19;;;6.16;89.30
80116;BME280;69423;47.608;19.366;2024-03-07T02:29:21;98851.34;;;6.18;89.44
80116;BME280;69423;47.608;19.366;2024-03-07T02:29:52;98846.06;;;6.18;89.16
80116;BME280;69423;47.608;19.366;2024-03-07T02:30:23;98838.75;;;6.12;88.98
80116;BME280;69423;47.608;19.366;2024-03-07T02:30:54;98842.38;;;6.11;89.71
80116;BME280;69423;47.608;19.366;2024-03-07T02:31:25;98838.59;;;6.13;88.26
80116;BME280;69423;47.608;19.366;2024-03-07T02:32:05;98842.38;;;6.11;88.65
80116;BME280;69423;47.608;19.366;2024-03-07T02:32:37;98837.75;;;6.13;89.19
80116;BME280;69423;47.608;19.366;2024-03-07T02:33:08;98839.41;;;6.14;88.92
80116;BME280;69423;47.608;19.366;2024-03-07T02:33:40;98842.22;;;6.12;89.58
80116;BME280;69423;47.608;19.366;2024-03-07T02:34:12;98848.19;;;6.14;89.68
80116;BME280;69423;47.608;19.366;2024-03-07T02:34:43;98840.38;;;6.04;89.25
80116;BME280;69423;47.608;19.366;2024-03-07T02:35:14;98843.34;;;6.10;89.28
80116;BME280;69423;47.608;19.366;2024-03-07T02:35:46;98840.72;;;6.10;89.97
80116;BME280;69423;47.608;19.366;2024-03-07T02:36:17;98838.88;;;6.10;89.46
80116;BME280;69423;47.608;19.366;2024-03-07T02:36:48;98839.88;;;6.09;89.92
80116;BME280;69423;47.608;19.366;2024-03-07T02:37:19;98836.19;;;6.02;89.30
80116;BME280;69423;47.608;19.366;2024-03-07T02:37:50;98842.00;;;6.05;89.75
80116;BME280;69423;47.608;19.366;2024-03-07T02:38:21;98847.44;;;6.04;89.98
80116;BME280;69423;47.608;19.366;2024-03-07T02:38:53;98839.50;;;6.04;90.19
80116;BME280;69423;47.608;19.366;2024-03-07T02:39:24;98845.81;;;6.03;90.83
80116;BME280;69423;47.608;19.366;2024-03-07T02:39:57;98845.66;;;6.04;90.58
80116;BME280;69423;47.608;19.366;2024-03-07T02:40:29;98847.63;;;6.02;90.24
80116;BME280;69423;47.608;19.366;2024-03-07T02:41:00;98846.34;;;6.06;91.00
80116;BME280;69423;47.608;19.366;2024-03-07T02:41:31;98842.34;;;6.02;91.08
80116;BME280;69423;47.608;19.366;2024-03-07T02:42:04;98843.31;;;6.01;90.01
80116;BME280;69423;47.608;19.366;2024-03-07T02:42:35;98844.13;;;6.02;90.24
80116;BME280;69423;47.608;19.366;2024-03-07T02:43:07;98839.31;;;5.97;89.95
80116;BME280;69423;47.608;19.366;2024-03-07T02:43:38;98843.47;;;6.00;89.41
80116;BME280;69423;47.608;19.366;2024-03-07T02:44:09;98841.81;;;5.99;89.30
80116;BME280;69423;47.608;19.366;2024-03-07T02:44:40;98846.28;;;5.98;89.83
80116;BME280;69423;47.608;19.366;2024-03-07T02:45:11;98842.09;;;5.96;89.74
80116;BME280;69423;47.608;19.366;2024-03-07T02:45:45;98843.78;;;5.97;90.16
80116;BME280;69423;47.608;19.366;2024-03-07T02:46:16;98843.78;;;5.97;90.14
80116;BME280;69423;47.608;19.366;2024-03-07T02:46:47;98833.19;;;5.97;90.19
80116;BME280;69423;47.608;19.366;2024-03-07T02:47:18;98839.75;;;5.93;90.00